sensor_id;sensor_type;location;lat;lon;timestamp;temperature;humidity
51878;SHT31;37911;51.526;11.536;2023-02-20T00:00:00;4.50;80.97
51878;SHT31;37911;51.526;11.536;2023-02-20T00:03:07;4.47;81.17
51878;SHT31;37911;51.526;11.536;2023-02-20T00:06:10;4.48;81.26
51878;SHT31;37911;51.526;11.536;2023-02-20T00:09:13;4.52;81.35
51878;SHT31;37911;51.526;11.536;2023-02-20T00:12:16;4.52;81.50
51878;SHT31;37911;51.526;11.536;2023-02-20T00:15:22;4.54;81.75
51878;SHT31;37911;51.526;11.536;2023-02-20T00:18:26;4.57;81.85
51878;SHT31;37911;51.526;11.536;2023-02-20T00:21:29;4.51;82.21
51878;SHT31;37911;51.526;11.536;2023-02-20T00:24:32;4.52;82.53
51878;SHT31;37911;51.526;11.536;2023-02-20T00:27:35;4.54;82.87
51878;SHT31;37911;51.526;11.536;2023-02-20T00:30:41;4.57;83.16
51878;SHT31;37911;51.526;11.536;2023-02-20T00:33:47;4.65;83.30
51878;SHT31;37911;51.526;11.536;2023-02-20T00:36:51;4.73;83.34
51878;SHT31;37911;51.526;11.536;2023-02-20T00:39:54;4.75;83.48
51878;SHT31;37911;51.526;11.536;2023-02-20T00:42:57;4.81;83.57
51878;SHT31;37911;51.526;11.536;2023-02-20T00:46:04;4.86;83.44
51878;SHT31;37911;51.526;11.536;2023-02-20T00:49:07;4.89;83.37
51878;SHT31;37911;51.526;11.536;2023-02-20T00:52:19;4.92;83.27
51878;SHT31;37911;51.526;11.536;2023-02-20T00:55:23;4.95;83.11
51878;SHT31;37911;51.526;11.536;2023-02-20T00:58:26;4.97;83.04
51878;SHT31;37911;51.526;11.536;2023-02-20T01:01:32;4.99;83.07
51878;SHT31;37911;51.526;11.536;2023-02-20T01:04:36;5.05;82.84
51878;SHT31;37911;51.526;11.536;2023-02-20T01:07:39;5.09;82.91
51878;SHT31;37911;51.526;11.536;2023-02-20T01:10:42;5.05;83.15
51878;SHT31;37911;51.526;11.536;2023-02-20T01:13:46;5.09;83.43
51878;SHT31;37911;51.526;11.536;2023-02-20T01:16:52;5.09;83.49
51878;SHT31;37911;51.526;11.536;2023-02-20T01:19:56;5.11;83.43
51878;SHT31;37911;51.526;11.536;2023-02-20T01:22:59;5.13;83.46
51878;SHT31;37911;51.526;11.536;2023-02-20T01:26:03;5.08;83.46
51878;SHT31;37911;51.526;11.536;2023-02-20T01:29:06;5.08;83.32
51878;SHT31;37911;51.526;11.536;2023-02-20T01:32:12;5.05;83.26
51878;SHT31;37911;51.526;11.536;2023-02-20T01:35:16;5.09;83.06
51878;SHT31;37911;51.526;11.536;2023-02-20T01:38:19;5.11;83.01
51878;SHT31;37911;51.526;11.536;2023-02-20T01:41:23;5.15;83.05
51878;SHT31;37911;51.526;11.536;2023-02-20T01:44:29;5.16;83.04
51878;SHT31;37911;51.526;11.536;2023-02-20T01:47:35;5.23;83.11
51878;SHT31;37911;51.526;11.536;2023-02-20T01:50:41;5.27;83.02
51878;SHT31;37911;51.526;11.536;2023-02-20T01:53:44;5.32;83.11
51878;SHT31;37911;51.526;11.536;2023-02-20T01:56:48;5.39;82.88
51878;SHT31;37911;51.526;11.536;2023-02-20T01:59:54;5.43;82.81
51878;SHT31;37911;51.526;11.536;2023-02-20T02:03:04;5.50;82.54
51878;SHT31;37911;51.526;11.536;2023-02-20T02:06:11;5.53;82.58
51878;SHT31;37911;51.526;11.536;2023-02-20T02:09:22;5.56;82.59
51878;SHT31;37911;51.526;11.536;2023-02-20T02:12:26;5.60;82.28
51878;SHT31;37911;51.526;11.536;2023-02-20T02:15:29;5.60;82.38
51878;SHT31;37911;51.526;11.536;2023-02-20T02:18:46;5.63;82.21
51878;SHT31;37911;51.526;11.536;2023-02-20T02:22:24;5.63;82.03
51878;SHT31;37911;51.526;11.536;2023-02-20T02:25:37;5.66;82.04
51878;SHT31;37911;51.526;11.536;2023-02-20T02:29:20;5.70;82.00
51878;SHT31;37911;51.526;11.536;2023-02-20T02:32:52;5.73;81.56
51878;SHT31;37911;51.526;11.536;2023-02-20T02:39:39;5.74;81.39
51878;SHT31;37911;51.526;11.536;2023-02-20T02:42:51;5.81;80.78
51878;SHT31;37911;51.526;11.536;2023-02-20T02:45:56;5.78;80.88
51878;SHT31;37911;51.526;11.536;2023-02-20T02:49:05;5.78;80.75
51878;SHT31;37911;51.526;11.536;2023-02-20T02:52:11;5.80;80.19
51878;SHT31;37911;51.526;11.536;2023-02-20T02:55:36;5.81;79.96
51878;SHT31;37911;51.526;11.536;2023-02-20T02:58:39;5.84;79.63
51878;SHT31;37911;51.526;11.536;2023-02-20T03:01:46;5.84;79.05
51878;SHT31;37911;51.526;11.536;2023-02-20T03:04:53;5.86;78.50
51878;SHT31;37911;51.526;11.536;2023-02-20T03:08:00;5.91;77.84
51878;SHT31;37911;51.526;11.536;2023-02-20T03:11:06;5.93;77.42
51878;SHT31;37911;51.526;11.536;2023-02-20T03:14:14;5.98;76.46
51878;SHT31;37911;51.526;11.536;2023-02-20T03:17:35;5.97;76.61
51878;SHT31;37911;51.526;11.536;2023-02-20T03:20:41;5.94;76.81
51878;SHT31;37911;51.526;11.536;2023-02-20T03:23:58;5.95;76.24
51878;SHT31;37911;51.526;11.536;2023-02-20T03:27:02;5.97;76.20
51878;SHT31;37911;51.526;11.536;2023-02-20T03:30:12;5.97;76.39
51878;SHT31;37911;51.526;11.536;2023-02-20T03:33:18;5.95;76.56
51878;SHT31;37911;51.526;11.536;2023-02-20T03:36:39;5.98;76.40
51878;SHT31;37911;51.526;11.536;2023-02-20T03:40:03;5.98;76.58
51878;SHT31;37911;51.526;11.536;2023-02-20T03:43:20;5.98;76.62
51878;SHT31;37911;51.526;11.536;2023-02-20T03:46:24;5.98;76.56
51878;SHT31;37911;51.526;11.536;2023-02-20T03:49:33;6.02;76.58
51878;SHT31;37911;51.526;11.536;2023-02-20T03:52:37;6.04;76.59
51878;SHT31;37911;51.526;11.536;2023-02-20T03:55:44;5.98;76.78
51878;SHT31;37911;51.526;11.536;2023-02-20T03:58:54;5.95;76.98
51878;SHT31;37911;51.526;11.536;2023-02-20T04:02:05;5.93;77.30
51878;SHT31;37911;51.526;11.536;2023-02-20T04:05:15;5.91;77.62
51878;SHT31;37911;51.526;11.536;2023-02-20T04:08:22;5.91;77.65
51878;SHT31;37911;51.526;11.536;2023-02-20T04:11:31;5.87;77.86
51878;SHT31;37911;51.526;11.536;2023-02-20T04:14:36;5.88;77.76
51878;SHT31;37911;51.526;11.536;2023-02-20T04:17:44;5.86;77.84
51878;SHT31;37911;51.526;11.536;2023-02-20T04:20:56;5.88;77.56
51878;SHT31;37911;51.526;11.536;2023-02-20T04:24:11;5.88;77.50
51878;SHT31;37911;51.526;11.536;2023-02-20T04:27:18;5.88;77.58
51878;SHT31;37911;51.526;11.536;2023-02-20T04:30:28;5.93;77.09
51878;SHT31;37911;51.526;11.536;2023-02-20T04:33:32;5.90;76.41
51878;SHT31;37911;51.526;11.536;2023-02-20T04:36:40;5.93;76.39
51878;SHT31;37911;51.526;11.536;2023-02-20T04:39:44;5.91;76.45
51878;SHT31;37911;51.526;11.536;2023-02-20T04:42:52;5.90;76.15
51878;SHT31;37911;51.526;11.536;2023-02-20T04:45:56;5.94;75.52
51878;SHT31;37911;51.526;11.536;2023-02-20T04:48:59;5.97;75.66
51878;SHT31;37911;51.526;11.536;2023-02-20T04:52:03;5.90;75.84
51878;SHT31;37911;51.526;11.536;2023-02-20T04:55:07;5.90;76.14
51878;SHT31;37911;51.526;11.536;2023-02-20T04:58:13;5.91;76.45
51878;SHT31;37911;51.526;11.536;2023-02-20T05:01:27;5.93;77.12
51878;SHT31;37911;51.526;11.536;2023-02-20T05:04:31;5.90;77.68
51878;SHT31;37911;51.526;11.536;2023-02-20T05:07:34;5.91;77.93
51878;SHT31;37911;51.526;11.536;2023-02-20T05:10:37;5.91;77.93
51878;SHT31;37911;51.526;11.536;2023-02-20T05:13:43;5.91;77.81
51878;SHT31;37911;51.526;11.536;2023-02-20T05:16:47;5.93;77.38
51878;SHT31;37911;51.526;11.536;2023-02-20T05:19:50;5.93;77.21
51878;SHT31;37911;51.526;11.536;2023-02-20T05:22:53;5.94;76.95
51878;SHT31;37911;51.526;11.536;2023-02-20T05:25:54;5.93;77.28
51878;SHT31;37911;51.526;11.536;2023-02-20T05:29:00;5.87;77.84
51878;SHT31;37911;51.526;11.536;2023-02-20T05:32:04;5.83;78.54
51878;SHT31;37911;51.526;11.536;2023-02-20T05:35:07;5.78;79.21
51878;SHT31;37911;51.526;11.536;2023-02-20T05:38:15;5.78;79.42
51878;SHT31;37911;51.526;11.536;2023-02-20T05:41:18;5.75;79.42
51878;SHT31;37911;51.526;11.536;2023-02-20T05:44:24;5.74;79.09
51878;SHT31;37911;51.526;11.536;2023-02-20T05:47:28;5.75;78.96
51878;SHT31;37911;51.526;11.536;2023-02-20T05:50:31;5.68;79.07
51878;SHT31;37911;51.526;11.536;2023-02-20T05:53:34;5.71;78.71
51878;SHT31;37911;51.526;11.536;2023-02-20T05:56:40;5.74;78.35
51878;SHT31;37911;51.526;11.536;2023-02-20T05:59:46;5.71;78.47
51878;SHT31;37911;51.526;11.536;2023-02-20T06:02:49;5.68;78.35
51878;SHT31;37911;51.526;11.536;2023-02-20T06:05:52;5.63;78.27
51878;SHT31;37911;51.526;11.536;2023-02-20T06:08:56;5.53;78.74
51878;SHT31;37911;51.526;11.536;2023-02-20T06:11:59;5.47;78.50
51878;SHT31;37911;51.526;11.536;2023-02-20T06:15:05;5.44;78.55
51878;SHT31;37911;51.526;11.536;2023-02-20T06:18:08;5.43;78.42
51878;SHT31;37911;51.526;11.536;2023-02-20T06:21:12;5.43;78.22
51878;SHT31;37911;51.526;11.536;2023-02-20T06:24:15;5.43;78.03
51878;SHT31;37911;51.526;11.536;2023-02-20T06:27:18;5.39;77.98
51878;SHT31;37911;51.526;11.536;2023-02-20T06:30:24;5.39;78.15
51878;SHT31;37911;51.526;11.536;2023-02-20T06:33:27;5.37;78.01
51878;SHT31;37911;51.526;11.536;2023-02-20T06:36:34;5.35;77.88
51878;SHT31;37911;51.526;11.536;2023-02-20T06:39:37;5.37;77.82
51878;SHT31;37911;51.526;11.536;2023-02-20T06:42:45;5.37;77.57
51878;SHT31;37911;51.526;11.536;2023-02-20T06:45:50;5.43;77.36
51878;SHT31;37911;51.526;11.536;2023-02-20T06:48:55;5.42;77.37
51878;SHT31;37911;51.526;11.536;2023-02-20T06:51:58;5.46;77.61
51878;SHT31;37911;51.526;11.536;2023-02-20T06:55:02;5.44;77.79
51878;SHT31;37911;51.526;11.536;2023-02-20T06:58:05;5.44;77.83
51878;SHT31;37911;51.526;11.536;2023-02-20T07:01:11;5.46;78.19
51878;SHT31;37911;51.526;11.536;2023-02-20T07:04:21;5.47;78.39
51878;SHT31;37911;51.526;11.536;2023-02-20T07:07:25;5.51;78.32
51878;SHT31;37911;51.526;11.536;2023-02-20T07:10:28;5.57;78.05
51878;SHT31;37911;51.526;11.536;2023-02-20T07:13:32;5.63;78.28
51878;SHT31;37911;51.526;11.536;2023-02-20T07:16:38;5.63;78.31
51878;SHT31;37911;51.526;11.536;2023-02-20T07:19:41;5.64;78.21
51878;SHT31;37911;51.526;11.536;2023-02-20T07:22:48;5.68;78.33
51878;SHT31;37911;51.526;11.536;2023-02-20T07:25:52;5.68;78.37
51878;SHT31;37911;51.526;11.536;2023-02-20T07:28:56;5.71;78.40
51878;SHT31;37911;51.526;11.536;2023-02-20T07:32:03;5.74;78.34
51878;SHT31;37911;51.526;11.536;2023-02-20T07:35:08;5.75;78.55
51878;SHT31;37911;51.526;11.536;2023-02-20T07:38:12;5.80;78.34
51878;SHT31;37911;51.526;11.536;2023-02-20T07:41:16;5.78;78.18
51878;SHT31;37911;51.526;11.536;2023-02-20T07:44:19;5.83;78.12
51878;SHT31;37911;51.526;11.536;2023-02-20T07:47:25;5.83;78.30
51878;SHT31;37911;51.526;11.536;2023-02-20T07:50:28;5.90;78.25
51878;SHT31;37911;51.526;11.536;2023-02-20T07:53:31;5.87;78.38
51878;SHT31;37911;51.526;11.536;2023-02-20T07:56:34;5.94;78.44
51878;SHT31;37911;51.526;11.536;2023-02-20T07:59:38;5.90;78.42
51878;SHT31;37911;51.526;11.536;2023-02-20T08:02:43;5.95;78.65
51878;SHT31;37911;51.526;11.536;2023-02-20T08:05:47;5.95;78.74
51878;SHT31;37911;51.526;11.536;2023-02-20T08:08:51;5.97;78.79
51878;SHT31;37911;51.526;11.536;2023-02-20T08:11:54;6.00;78.61
51878;SHT31;37911;51.526;11.536;2023-02-20T08:14:58;6.00;78.71
51878;SHT31;37911;51.526;11.536;2023-02-20T08:18:03;6.07;78.70
51878;SHT31;37911;51.526;11.536;2023-02-20T08:21:07;6.07;78.79
51878;SHT31;37911;51.526;11.536;2023-02-20T08:24:10;6.10;78.84
51878;SHT31;37911;51.526;11.536;2023-02-20T08:27:13;6.14;78.45
51878;SHT31;37911;51.526;11.536;2023-02-20T08:30:20;6.18;78.41
51878;SHT31;37911;51.526;11.536;2023-02-20T08:33:26;6.22;78.25
51878;SHT31;37911;51.526;11.536;2023-02-20T08:36:29;6.25;77.99
51878;SHT31;37911;51.526;11.536;2023-02-20T08:39:33;6.32;77.88
51878;SHT31;37911;51.526;11.536;2023-02-20T08:42:36;6.36;77.58
51878;SHT31;37911;51.526;11.536;2023-02-20T08:45:40;6.46;77.36
51878;SHT31;37911;51.526;11.536;2023-02-20T08:48:45;6.50;76.96
51878;SHT31;37911;51.526;11.536;2023-02-20T08:51:54;6.53;77.12
51878;SHT31;37911;51.526;11.536;2023-02-20T08:54:57;6.59;76.86
51878;SHT31;37911;51.526;11.536;2023-02-20T08:58:00;6.68;76.70
51878;SHT31;37911;51.526;11.536;2023-02-20T09:01:04;6.71;76.68
51878;SHT31;37911;51.526;11.536;2023-02-20T09:04:10;6.75;76.30
51878;SHT31;37911;51.526;11.536;2023-02-20T09:07:13;6.86;76.03
51878;SHT31;37911;51.526;11.536;2023-02-20T09:10:17;6.90;75.79
51878;SHT31;37911;51.526;11.536;2023-02-20T09:13:20;6.99;75.88
51878;SHT31;37911;51.526;11.536;2023-02-20T09:16:24;7.03;75.33
51878;SHT31;37911;51.526;11.536;2023-02-20T09:19:30;7.11;75.34
51878;SHT31;37911;51.526;11.536;2023-02-20T09:22:34;7.17;74.52
51878;SHT31;37911;51.526;11.536;2023-02-20T09:25:37;7.31;74.65
51878;SHT31;37911;51.526;11.536;2023-02-20T09:28:41;7.44;74.63
51878;SHT31;37911;51.526;11.536;2023-02-20T09:31:44;7.55;73.87
51878;SHT31;37911;51.526;11.536;2023-02-20T09:34:50;7.67;73.05
51878;SHT31;37911;51.526;11.536;2023-02-20T09:37:54;7.77;72.60
51878;SHT31;37911;51.526;11.536;2023-02-20T09:40:58;7.86;72.39
51878;SHT31;37911;51.526;11.536;2023-02-20T09:44:07;8.01;71.44
51878;SHT31;37911;51.526;11.536;2023-02-20T09:47:26;8.26;70.98
51878;SHT31;37911;51.526;11.536;2023-02-20T09:50:36;8.39;70.16
51878;SHT31;37911;51.526;11.536;2023-02-20T09:53:43;8.70;69.89
51878;SHT31;37911;51.526;11.536;2023-02-20T09:56:54;9.03;68.40
51878;SHT31;37911;51.526;11.536;2023-02-20T10:00:03;9.27;67.85
51878;SHT31;37911;51.526;11.536;2023-02-20T10:03:17;9.62;66.61
51878;SHT31;37911;51.526;11.536;2023-02-20T10:06:26;9.76;66.42
51878;SHT31;37911;51.526;11.536;2023-02-20T10:09:30;9.66;65.91
51878;SHT31;37911;51.526;11.536;2023-02-20T10:12:39;9.75;66.00
51878;SHT31;37911;51.526;11.536;2023-02-20T10:15:50;9.89;66.09
51878;SHT31;37911;51.526;11.536;2023-02-20T10:19:05;10.02;65.55
51878;SHT31;37911;51.526;11.536;2023-02-20T10:22:19;10.09;65.09
51878;SHT31;37911;51.526;11.536;2023-02-20T10:25:27;9.99;65.22
51878;SHT31;37911;51.526;11.536;2023-02-20T10:28:32;9.93;66.41
51878;SHT31;37911;51.526;11.536;2023-02-20T10:31:40;9.90;66.47
51878;SHT31;37911;51.526;11.536;2023-02-20T10:34:52;9.96;65.96
51878;SHT31;37911;51.526;11.536;2023-02-20T10:38:02;9.93;65.91
51878;SHT31;37911;51.526;11.536;2023-02-20T10:41:11;9.96;65.56
51878;SHT31;37911;51.526;11.536;2023-02-20T10:44:20;10.00;64.16
51878;SHT31;37911;51.526;11.536;2023-02-20T10:47:30;9.99;63.62
51878;SHT31;37911;51.526;11.536;2023-02-20T10:50:41;10.02;63.53
51878;SHT31;37911;51.526;11.536;2023-02-20T10:53:54;10.07;62.50
51878;SHT31;37911;51.526;11.536;2023-02-20T10:57:01;10.10;62.04
51878;SHT31;37911;51.526;11.536;2023-02-20T11:00:09;10.13;61.59
51878;SHT31;37911;51.526;11.536;2023-02-20T11:03:16;10.24;61.17
51878;SHT31;37911;51.526;11.536;2023-02-20T11:06:22;10.33;61.34
51878;SHT31;37911;51.526;11.536;2023-02-20T11:09:29;10.36;60.68
51878;SHT31;37911;51.526;11.536;2023-02-20T11:12:35;10.43;60.83
51878;SHT31;37911;51.526;11.536;2023-02-20T11:15:42;10.45;60.62
51878;SHT31;37911;51.526;11.536;2023-02-20T11:18:46;10.48;60.29
51878;SHT31;37911;51.526;11.536;2023-02-20T11:21:51;10.55;59.87
51878;SHT31;37911;51.526;11.536;2023-02-20T11:25:14;10.58;60.00
51878;SHT31;37911;51.526;11.536;2023-02-20T11:28:20;10.55;59.59
51878;SHT31;37911;51.526;11.536;2023-02-20T11:31:23;10.61;60.69
51878;SHT31;37911;51.526;11.536;2023-02-20T11:34:28;10.54;60.11
51878;SHT31;37911;51.526;11.536;2023-02-20T11:37:32;10.50;60.14
51878;SHT31;37911;51.526;11.536;2023-02-20T11:40:38;10.51;60.38
51878;SHT31;37911;51.526;11.536;2023-02-20T11:43:43;10.58;60.73
51878;SHT31;37911;51.526;11.536;2023-02-20T11:47:08;10.58;60.87
51878;SHT31;37911;51.526;11.536;2023-02-20T11:50:16;10.61;63.14
51878;SHT31;37911;51.526;11.536;2023-02-20T11:53:22;10.64;64.52
51878;SHT31;37911;51.526;11.536;2023-02-20T11:56:28;10.65;64.86
51878;SHT31;37911;51.526;11.536;2023-02-20T11:59:35;10.68;64.90
51878;SHT31;37911;51.526;11.536;2023-02-20T12:02:47;10.78;65.22
51878;SHT31;37911;51.526;11.536;2023-02-20T12:05:51;10.81;64.93
51878;SHT31;37911;51.526;11.536;2023-02-20T12:08:55;10.92;65.13
51878;SHT31;37911;51.526;11.536;2023-02-20T12:12:01;11.02;65.36
51878;SHT31;37911;51.526;11.536;2023-02-20T12:15:11;11.15;65.67
51878;SHT31;37911;51.526;11.536;2023-02-20T12:18:18;11.20;65.04
51878;SHT31;37911;51.526;11.536;2023-02-20T12:21:30;11.26;65.56
51878;SHT31;37911;51.526;11.536;2023-02-20T12:24:57;11.26;65.99
51878;SHT31;37911;51.526;11.536;2023-02-20T12:28:12;11.29;65.56
51878;SHT31;37911;51.526;11.536;2023-02-20T12:31:25;11.32;66.18
51878;SHT31;37911;51.526;11.536;2023-02-20T12:34:45;11.44;66.67
51878;SHT31;37911;51.526;11.536;2023-02-20T12:41:30;11.60;66.50
51878;SHT31;37911;51.526;11.536;2023-02-20T12:44:48;11.71;66.63
51878;SHT31;37911;51.526;11.536;2023-02-20T12:48:06;11.76;66.59
51878;SHT31;37911;51.526;11.536;2023-02-20T12:51:20;11.79;66.79
51878;SHT31;37911;51.526;11.536;2023-02-20T12:54:35;11.81;66.89
51878;SHT31;37911;51.526;11.536;2023-02-20T12:57:43;11.86;67.26
51878;SHT31;37911;51.526;11.536;2023-02-20T13:00:54;11.91;67.30
51878;SHT31;37911;51.526;11.536;2023-02-20T13:04:04;11.98;67.13
51878;SHT31;37911;51.526;11.536;2023-02-20T13:07:15;12.01;67.63
51878;SHT31;37911;51.526;11.536;2023-02-20T13:10:23;11.90;67.88
51878;SHT31;37911;51.526;11.536;2023-02-20T13:13:31;11.90;68.13
51878;SHT31;37911;51.526;11.536;2023-02-20T13:16:44;11.91;68.10
51878;SHT31;37911;51.526;11.536;2023-02-20T13:19:54;11.93;68.79
51878;SHT31;37911;51.526;11.536;2023-02-20T13:23:00;11.98;68.99
51878;SHT31;37911;51.526;11.536;2023-02-20T13:26:46;11.97;68.81
51878;SHT31;37911;51.526;11.536;2023-02-20T13:29:59;11.98;68.68
51878;SHT31;37911;51.526;11.536;2023-02-20T13:33:18;12.00;68.80
51878;SHT31;37911;51.526;11.536;2023-02-20T13:36:39;12.05;68.96
51878;SHT31;37911;51.526;11.536;2023-02-20T13:39:43;12.11;68.68
51878;SHT31;37911;51.526;11.536;2023-02-20T13:42:46;12.18;68.63
51878;SHT31;37911;51.526;11.536;2023-02-20T13:46:13;12.21;68.82
51878;SHT31;37911;51.526;11.536;2023-02-20T13:52:59;12.23;68.35
51878;SHT31;37911;51.526;11.536;2023-02-20T13:56:04;12.23;68.86
51878;SHT31;37911;51.526;11.536;2023-02-20T13:59:09;12.20;68.53
51878;SHT31;37911;51.526;11.536;2023-02-20T14:02:17;12.21;68.45
51878;SHT31;37911;51.526;11.536;2023-02-20T14:05:25;12.18;68.66
51878;SHT31;37911;51.526;11.536;2023-02-20T14:08:33;12.18;68.80
51878;SHT31;37911;51.526;11.536;2023-02-20T14:11:38;12.14;68.80
51878;SHT31;37911;51.526;11.536;2023-02-20T14:14:43;12.18;69.07
51878;SHT31;37911;51.526;11.536;2023-02-20T14:17:48;12.14;69.20
51878;SHT31;37911;51.526;11.536;2023-02-20T14:20:57;12.14;69.14
51878;SHT31;37911;51.526;11.536;2023-02-20T14:24:16;12.16;69.17
51878;SHT31;37911;51.526;11.536;2023-02-20T14:27:24;12.18;69.53
51878;SHT31;37911;51.526;11.536;2023-02-20T14:30:27;12.18;69.34
51878;SHT31;37911;51.526;11.536;2023-02-20T14:33:31;12.27;69.61
51878;SHT31;37911;51.526;11.536;2023-02-20T14:36:51;12.30;69.27
51878;SHT31;37911;51.526;11.536;2023-02-20T14:40:04;12.41;69.34
51878;SHT31;37911;51.526;11.536;2023-02-20T14:43:15;12.46;68.62
51878;SHT31;37911;51.526;11.536;2023-02-20T14:46:21;12.45;69.00
51878;SHT31;37911;51.526;11.536;2023-02-20T14:49:26;12.34;69.41
51878;SHT31;37911;51.526;11.536;2023-02-20T14:52:30;12.21;69.53
51878;SHT31;37911;51.526;11.536;2023-02-20T14:55:36;12.11;69.93
51878;SHT31;37911;51.526;11.536;2023-02-20T14:58:39;12.04;70.17
51878;SHT31;37911;51.526;11.536;2023-02-20T15:01:43;12.00;70.24
51878;SHT31;37911;51.526;11.536;2023-02-20T15:04:47;11.91;70.53
51878;SHT31;37911;51.526;11.536;2023-02-20T15:07:51;11.89;70.77
51878;SHT31;37911;51.526;11.536;2023-02-20T15:11:05;11.83;71.20
51878;SHT31;37911;51.526;11.536;2023-02-20T15:14:16;11.80;71.11
51878;SHT31;37911;51.526;11.536;2023-02-20T15:17:23;11.83;70.96
51878;SHT31;37911;51.526;11.536;2023-02-20T15:20:35;11.80;71.54
51878;SHT31;37911;51.526;11.536;2023-02-20T15:23:41;11.79;71.59
51878;SHT31;37911;51.526;11.536;2023-02-20T15:26:47;11.73;72.04
51878;SHT31;37911;51.526;11.536;2023-02-20T15:30:06;11.69;72.12
51878;SHT31;37911;51.526;11.536;2023-02-20T15:33:10;11.73;71.87
51878;SHT31;37911;51.526;11.536;2023-02-20T15:36:17;11.86;71.48
51878;SHT31;37911;51.526;11.536;2023-02-20T15:39:21;11.89;71.17
51878;SHT31;37911;51.526;11.536;2023-02-20T15:42:28;11.90;71.05
51878;SHT31;37911;51.526;11.536;2023-02-20T15:45:31;11.83;71.36
51878;SHT31;37911;51.526;11.536;2023-02-20T15:48:37;11.71;70.02
51878;SHT31;37911;51.526;11.536;2023-02-20T15:51:41;11.53;70.23
51878;SHT31;37911;51.526;11.536;2023-02-20T15:54:49;11.35;70.19
51878;SHT31;37911;51.526;11.536;2023-02-20T15:57:57;11.22;70.81
51878;SHT31;37911;51.526;11.536;2023-02-20T16:01:01;11.07;71.05
51878;SHT31;37911;51.526;11.536;2023-02-20T16:04:05;10.97;71.44
51878;SHT31;37911;51.526;11.536;2023-02-20T16:07:08;10.84;71.01
51878;SHT31;37911;51.526;11.536;2023-02-20T16:10:14;10.74;71.50
51878;SHT31;37911;51.526;11.536;2023-02-20T16:13:24;10.64;71.53
51878;SHT31;37911;51.526;11.536;2023-02-20T16:16:31;10.50;72.03
51878;SHT31;37911;51.526;11.536;2023-02-20T16:19:35;10.37;72.26
51878;SHT31;37911;51.526;11.536;2023-02-20T16:22:38;10.23;72.80
51878;SHT31;37911;51.526;11.536;2023-02-20T16:25:41;10.16;73.10
51878;SHT31;37911;51.526;11.536;2023-02-20T16:28:51;9.99;73.69
51878;SHT31;37911;51.526;11.536;2023-02-20T16:35:33;9.80;74.40
51878;SHT31;37911;51.526;11.536;2023-02-20T16:38:36;9.78;74.34
51878;SHT31;37911;51.526;11.536;2023-02-20T16:41:40;9.72;74.62
51878;SHT31;37911;51.526;11.536;2023-02-20T16:44:47;9.65;74.97
51878;SHT31;37911;51.526;11.536;2023-02-20T16:47:52;9.56;75.33
51878;SHT31;37911;51.526;11.536;2023-02-20T16:50:55;9.49;75.63
51878;SHT31;37911;51.526;11.536;2023-02-20T16:53:58;9.43;75.81
51878;SHT31;37911;51.526;11.536;2023-02-20T16:57:05;9.39;75.91
51878;SHT31;37911;51.526;11.536;2023-02-20T17:00:13;9.35;75.90
51878;SHT31;37911;51.526;11.536;2023-02-20T17:03:17;9.31;75.94
51878;SHT31;37911;51.526;11.536;2023-02-20T17:06:20;9.24;75.99
51878;SHT31;37911;51.526;11.536;2023-02-20T17:09:29;9.19;76.08
51878;SHT31;37911;51.526;11.536;2023-02-20T17:12:33;9.19;76.16
51878;SHT31;37911;51.526;11.536;2023-02-20T17:15:39;9.12;76.24
51878;SHT31;37911;51.526;11.536;2023-02-20T17:18:43;9.10;76.13
51878;SHT31;37911;51.526;11.536;2023-02-20T17:21:47;9.10;76.07
51878;SHT31;37911;51.526;11.536;2023-02-20T17:24:51;9.10;75.94
51878;SHT31;37911;51.526;11.536;2023-02-20T17:27:55;9.05;76.13
51878;SHT31;37911;51.526;11.536;2023-02-20T17:31:01;9.05;76.26
51878;SHT31;37911;51.526;11.536;2023-02-20T17:34:05;9.05;76.32
51878;SHT31;37911;51.526;11.536;2023-02-20T17:37:08;9.00;76.40
51878;SHT31;37911;51.526;11.536;2023-02-20T17:40:12;9.01;76.39
51878;SHT31;37911;51.526;11.536;2023-02-20T17:43:15;8.94;76.44
51878;SHT31;37911;51.526;11.536;2023-02-20T17:46:21;8.94;76.33
51878;SHT31;37911;51.526;11.536;2023-02-20T17:49:25;8.88;76.49
51878;SHT31;37911;51.526;11.536;2023-02-20T17:52:29;8.85;76.46
51878;SHT31;37911;51.526;11.536;2023-02-20T17:55:32;8.78;76.61
51878;SHT31;37911;51.526;11.536;2023-02-20T17:58:37;8.80;76.61
51878;SHT31;37911;51.526;11.536;2023-02-20T18:01:44;8.77;76.69
51878;SHT31;37911;51.526;11.536;2023-02-20T18:04:47;8.77;76.75
51878;SHT31;37911;51.526;11.536;2023-02-20T18:07:50;8.71;76.85
51878;SHT31;37911;51.526;11.536;2023-02-20T18:10:54;8.73;76.75
51878;SHT31;37911;51.526;11.536;2023-02-20T18:13:57;8.67;76.76
51878;SHT31;37911;51.526;11.536;2023-02-20T18:17:04;8.64;76.95
51878;SHT31;37911;51.526;11.536;2023-02-20T18:20:08;8.61;77.08
51878;SHT31;37911;51.526;11.536;2023-02-20T18:23:11;8.60;77.04
51878;SHT31;37911;51.526;11.536;2023-02-20T18:26:15;8.59;77.08
51878;SHT31;37911;51.526;11.536;2023-02-20T18:29:19;8.56;77.09
51878;SHT31;37911;51.526;11.536;2023-02-20T18:32:27;8.52;77.15
51878;SHT31;37911;51.526;11.536;2023-02-20T18:35:30;8.50;77.26
51878;SHT31;37911;51.526;11.536;2023-02-20T18:38:33;8.44;77.35
51878;SHT31;37911;51.526;11.536;2023-02-20T18:41:37;8.43;77.45
51878;SHT31;37911;51.526;11.536;2023-02-20T18:44:40;8.43;77.49
51878;SHT31;37911;51.526;11.536;2023-02-20T18:47:51;8.34;77.65
51878;SHT31;37911;51.526;11.536;2023-02-20T18:50:54;8.34;77.79
51878;SHT31;37911;51.526;11.536;2023-02-20T18:53:57;8.36;77.84
51878;SHT31;37911;51.526;11.536;2023-02-20T18:57:02;8.36;77.96
51878;SHT31;37911;51.526;11.536;2023-02-20T19:00:07;8.32;78.07
51878;SHT31;37911;51.526;11.536;2023-02-20T19:03:13;8.29;78.26
51878;SHT31;37911;51.526;11.536;2023-02-20T19:06:25;8.29;78.19
51878;SHT31;37911;51.526;11.536;2023-02-20T19:09:29;8.32;78.22
51878;SHT31;37911;51.526;11.536;2023-02-20T19:12:37;8.30;78.26
51878;SHT31;37911;51.526;11.536;2023-02-20T19:15:40;8.23;78.50
51878;SHT31;37911;51.526;11.536;2023-02-20T19:18:46;8.29;78.51
51878;SHT31;37911;51.526;11.536;2023-02-20T19:21:50;8.34;78.50
51878;SHT31;37911;51.526;11.536;2023-02-20T19:24:54;8.37;78.29
51878;SHT31;37911;51.526;11.536;2023-02-20T19:28:00;8.40;78.23
51878;SHT31;37911;51.526;11.536;2023-02-20T19:31:04;8.37;78.36
51878;SHT31;37911;51.526;11.536;2023-02-20T19:34:10;8.36;78.54
51878;SHT31;37911;51.526;11.536;2023-02-20T19:37:13;8.40;78.21
51878;SHT31;37911;51.526;11.536;2023-02-20T19:40:17;8.43;78.20
51878;SHT31;37911;51.526;11.536;2023-02-20T19:43:21;8.47;78.11
51878;SHT31;37911;51.526;11.536;2023-02-20T19:46:26;8.50;78.16
51878;SHT31;37911;51.526;11.536;2023-02-20T19:49:32;8.46;78.15